sensor_id;sensor_type;location;lat;lon;timestamp;P1;durP1;ratioP1;P2;durP2;ratioP2
22812;SDS011;11573;51.334;3.244;2022-12-29T00:01:08;6.47;;;1.92;;
22812;SDS011;11573;51.334;3.244;2022-12-29T00:03:35;4.82;;;1.73;;
22812;SDS011;11573;51.334;3.244;2022-12-29T00:06:02;2.38;;;1.65;;
22812;SDS011;11573;51.334;3.244;2022-12-29T00:08:29;4.63;;;1.80;;
22812;SDS011;11573;51.334;3.244;2022-12-29T00:11:14;4.43;;;1.85;;
22812;SDS011;11573;51.334;3.244;2022-12-29T00:13:43;2.85;;;1.55;;
22812;SDS011;11573;51.334;3.244;2022-12-29T00:16:29;2.60;;;1.70;;
22812;SDS011;11573;51.334;3.244;2022-12-29T00:18:57;3.38;;;1.70;;
22812;SDS011;11573;51.334;3.244;2022-12-29T00:21:24;3.88;;;1.58;;
22812;SDS011;11573;51.334;3.244;2022-12-29T00:24:15;4.38;;;1.35;;
22812;SDS011;11573;51.334;3.244;2022-12-29T00:29:48;5.55;;;1.40;;
22812;SDS011;11573;51.334;3.244;2022-12-29T00:32:34;4.55;;;1.30;;
22812;SDS011;11573;51.334;3.244;2022-12-29T00:37:51;7.18;;;1.42;;
22812;SDS011;11573;51.334;3.244;2022-12-29T00:40:39;6.53;;;1.55;;
22812;SDS011;11573;51.334;3.244;2022-12-29T00:43:25;10.07;;;1.77;;
22812;SDS011;11573;51.334;3.244;2022-12-29T00:46:11;6.63;;;1.52;;
22812;SDS011;11573;51.334;3.244;2022-12-29T00:48:45;6.07;;;1.60;;
22812;SDS011;11573;51.334;3.244;2022-12-29T00:53:57;9.45;;;1.63;;
22812;SDS011;11573;51.334;3.244;2022-12-29T00:56:24;8.25;;;1.90;;
22812;SDS011;11573;51.334;3.244;2022-12-29T00:58:51;7.95;;;1.55;;
22812;SDS011;11573;51.334;3.244;2022-12-29T01:01:18;5.88;;;1.42;;
22812;SDS011;11573;51.334;3.244;2022-12-29T01:03:45;12.90;;;2.15;;
22812;SDS011;11573;51.334;3.244;2022-12-29T01:06:12;7.88;;;1.83;;
22812;SDS011;11573;51.334;3.244;2022-12-29T01:08:39;7.35;;;1.88;;
22812;SDS011;11573;51.334;3.244;2022-12-29T01:11:07;7.45;;;1.90;;
22812;SDS011;11573;51.334;3.244;2022-12-29T01:13:39;6.85;;;1.88;;
22812;SDS011;11573;51.334;3.244;2022-12-29T01:16:07;5.88;;;1.70;;
22812;SDS011;11573;51.334;3.244;2022-12-29T01:18:34;5.60;;;1.70;;
22812;SDS011;11573;51.334;3.244;2022-12-29T01:21:03;9.00;;;2.10;;
22812;SDS011;11573;51.334;3.244;2022-12-29T01:23:32;8.77;;;2.05;;
22812;SDS011;11573;51.334;3.244;2022-12-29T01:26:09;10.98;;;1.90;;
22812;SDS011;11573;51.334;3.244;2022-12-29T01:28:38;7.43;;;1.90;;
22812;SDS011;11573;51.334;3.244;2022-12-29T01:31:06;6.78;;;1.73;;
22812;SDS011;11573;51.334;3.244;2022-12-29T01:33:35;8.25;;;2.00;;
22812;SDS011;11573;51.334;3.244;2022-12-29T01:36:21;5.78;;;1.77;;
22812;SDS011;11573;51.334;3.244;2022-12-29T01:38:48;7.72;;;2.03;;
22812;SDS011;11573;51.334;3.244;2022-12-29T01:41:15;8.55;;;2.03;;
22812;SDS011;11573;51.334;3.244;2022-12-29T01:43:45;7.10;;;1.75;;
22812;SDS011;11573;51.334;3.244;2022-12-29T01:52:02;8.05;;;1.58;;
22812;SDS011;11573;51.334;3.244;2022-12-29T01:54:34;6.70;;;2.00;;
22812;SDS011;11573;51.334;3.244;2022-12-29T01:57:20;9.35;;;1.73;;
22812;SDS011;11573;51.334;3.244;2022-12-29T01:59:53;9.95;;;1.92;;
22812;SDS011;11573;51.334;3.244;2022-12-29T02:02:37;9.10;;;1.67;;
22812;SDS011;11573;51.334;3.244;2022-12-29T02:05:13;7.80;;;1.95;;
22812;SDS011;11573;51.334;3.244;2022-12-29T02:07:46;7.63;;;1.80;;
22812;SDS011;11573;51.334;3.244;2022-12-29T02:10:14;5.85;;;1.67;;
22812;SDS011;11573;51.334;3.244;2022-12-29T02:12:42;10.85;;;1.90;;
22812;SDS011;11573;51.334;3.244;2022-12-29T02:15:09;13.20;;;2.30;;
22812;SDS011;11573;51.334;3.244;2022-12-29T02:17:51;9.90;;;2.75;;
22812;SDS011;11573;51.334;3.244;2022-12-29T02:23:25;9.10;;;2.03;;
22812;SDS011;11573;51.334;3.244;2022-12-29T02:31:38;13.43;;;2.55;;
22812;SDS011;11573;51.334;3.244;2022-12-29T02:34:20;13.02;;;2.20;;
22812;SDS011;11573;51.334;3.244;2022-12-29T02:39:53;14.00;;;2.57;;
22812;SDS011;11573;51.334;3.244;2022-12-29T02:42:36;12.20;;;2.20;;
22812;SDS011;11573;51.334;3.244;2022-12-29T02:45:17;13.88;;;2.78;;
22812;SDS011;11573;51.334;3.244;2022-12-29T02:50:25;12.35;;;2.50;;
22812;SDS011;11573;51.334;3.244;2022-12-29T02:53:11;11.07;;;2.50;;
22812;SDS011;11573;51.334;3.244;2022-12-29T02:55:48;12.15;;;2.08;;
22812;SDS011;11573;51.334;3.244;2022-12-29T02:58:17;18.85;;;3.03;;
22812;SDS011;11573;51.334;3.244;2022-12-29T03:00:51;13.77;;;2.20;;
22812;SDS011;11573;51.334;3.244;2022-12-29T03:03:41;10.48;;;2.60;;
22812;SDS011;11573;51.334;3.244;2022-12-29T03:09:36;11.25;;;2.00;;
22812;SDS011;11573;51.334;3.244;2022-12-29T03:12:29;7.63;;;2.13;;
22812;SDS011;11573;51.334;3.244;2022-12-29T03:15:22;15.18;;;3.03;;
22812;SDS011;11573;51.334;3.244;2022-12-29T03:18:19;13.60;;;3.42;;
22812;SDS011;11573;51.334;3.244;2022-12-29T03:20:52;14.75;;;2.97;;
22812;SDS011;11573;51.334;3.244;2022-12-29T03:23:44;16.52;;;2.45;;
22812;SDS011;11573;51.334;3.244;2022-12-29T03:26:15;20.55;;;3.63;;
22812;SDS011;11573;51.334;3.244;2022-12-29T03:28:51;17.88;;;3.40;;
22812;SDS011;11573;51.334;3.244;2022-12-29T03:31:23;16.83;;;2.97;;
22812;SDS011;11573;51.334;3.244;2022-12-29T03:33:53;17.80;;;3.72;;
22812;SDS011;11573;51.334;3.244;2022-12-29T03:36:27;18.23;;;2.85;;
22812;SDS011;11573;51.334;3.244;2022-12-29T03:39:02;15.20;;;3.00;;
22812;SDS011;11573;51.334;3.244;2022-12-29T03:44:05;19.50;;;3.15;;
22812;SDS011;11573;51.334;3.244;2022-12-29T03:46:33;15.82;;;3.15;;
22812;SDS011;11573;51.334;3.244;2022-12-29T03:49:00;15.55;;;3.45;;
22812;SDS011;11573;51.334;3.244;2022-12-29T03:51:27;14.45;;;3.55;;
22812;SDS011;11573;51.334;3.244;2022-12-29T03:53:55;21.23;;;4.13;;
22812;SDS011;11573;51.334;3.244;2022-12-29T03:56:23;20.00;;;5.03;;
22812;SDS011;11573;51.334;3.244;2022-12-29T03:58:51;23.80;;;4.35;;
22812;SDS011;11573;51.334;3.244;2022-12-29T04:01:29;25.35;;;3.92;;
22812;SDS011;11573;51.334;3.244;2022-12-29T04:03:56;23.48;;;4.70;;
22812;SDS011;11573;51.334;3.244;2022-12-29T04:06:24;23.02;;;4.88;;
22812;SDS011;11573;51.334;3.244;2022-12-29T04:09:00;17.98;;;3.72;;
22812;SDS011;11573;51.334;3.244;2022-12-29T04:11:31;23.33;;;3.97;;
22812;SDS011;11573;51.334;3.244;2022-12-29T04:14:02;21.23;;;3.42;;
22812;SDS011;11573;51.334;3.244;2022-12-29T04:16:31;26.10;;;4.45;;
22812;SDS011;11573;51.334;3.244;2022-12-29T04:18:59;15.27;;;3.55;;
22812;SDS011;11573;51.334;3.244;2022-12-29T04:21:26;22.98;;;3.83;;
22812;SDS011;11573;51.334;3.244;2022-12-29T04:23:53;18.27;;;3.13;;
22812;SDS011;11573;51.334;3.244;2022-12-29T04:26:21;17.48;;;3.35;;
22812;SDS011;11573;51.334;3.244;2022-12-29T04:28:57;16.63;;;3.63;;
22812;SDS011;11573;51.334;3.244;2022-12-29T04:31:37;20.27;;;3.33;;
22812;SDS011;11573;51.334;3.244;2022-12-29T04:34:05;18.58;;;3.08;;
22812;SDS011;11573;51.334;3.244;2022-12-29T04:36:32;18.13;;;3.70;;
22812;SDS011;11573;51.334;3.244;2022-12-29T04:39:00;17.33;;;3.38;;
22812;SDS011;11573;51.334;3.244;2022-12-29T04:41:27;14.57;;;2.95;;
22812;SDS011;11573;51.334;3.244;2022-12-29T04:43:54;18.88;;;3.55;;
22812;SDS011;11573;51.334;3.244;2022-12-29T04:46:43;19.90;;;3.30;;
22812;SDS011;11573;51.334;3.244;2022-12-29T04:49:20;20.85;;;3.28;;
22812;SDS011;11573;51.334;3.244;2022-12-29T04:51:53;18.77;;;3.55;;
22812;SDS011;11573;51.334;3.244;2022-12-29T04:54:22;23.80;;;3.60;;
22812;SDS011;11573;51.334;3.244;2022-12-29T04:56:56;17.10;;;3.40;;
22812;SDS011;11573;51.334;3.244;2022-12-29T04:59:23;24.30;;;3.58;;
22812;SDS011;11573;51.334;3.244;2022-12-29T05:01:54;19.95;;;3.83;;
22812;SDS011;11573;51.334;3.244;2022-12-29T05:04:21;23.00;;;3.72;;
22812;SDS011;11573;51.334;3.244;2022-12-29T05:06:48;18.38;;;3.28;;
22812;SDS011;11573;51.334;3.244;2022-12-29T05:09:16;18.67;;;3.25;;
22812;SDS011;11573;51.334;3.244;2022-12-29T05:11:44;20.85;;;3.42;;
22812;SDS011;11573;51.334;3.244;2022-12-29T05:14:11;20.20;;;3.95;;
22812;SDS011;11573;51.334;3.244;2022-12-29T05:16:37;25.10;;;3.83;;
22812;SDS011;11573;51.334;3.244;2022-12-29T05:19:05;20.10;;;3.67;;
22812;SDS011;11573;51.334;3.244;2022-12-29T05:21:33;18.95;;;4.13;;
22812;SDS011;11573;51.334;3.244;2022-12-29T05:24:00;19.95;;;3.92;;
22812;SDS011;11573;51.334;3.244;2022-12-29T05:26:28;33.55;;;4.25;;
22812;SDS011;11573;51.334;3.244;2022-12-29T05:29:03;23.50;;;3.92;;
22812;SDS011;11573;51.334;3.244;2022-12-29T05:31:31;21.48;;;4.00;;
22812;SDS011;11573;51.334;3.244;2022-12-29T05:33:59;20.08;;;3.90;;
22812;SDS011;11573;51.334;3.244;2022-12-29T05:36:27;21.23;;;4.10;;
22812;SDS011;11573;51.334;3.244;2022-12-29T05:39:02;27.13;;;4.30;;
22812;SDS011;11573;51.334;3.244;2022-12-29T05:41:29;26.52;;;4.82;;
22812;SDS011;11573;51.334;3.244;2022-12-29T05:44:14;25.15;;;5.25;;
22812;SDS011;11573;51.334;3.244;2022-12-29T05:47:02;26.70;;;5.07;;
22812;SDS011;11573;51.334;3.244;2022-12-29T05:52:37;13.85;;;3.60;;
22812;SDS011;11573;51.334;3.244;2022-12-29T05:55:05;17.92;;;4.25;;
22812;SDS011;11573;51.334;3.244;2022-12-29T05:57:35;24.98;;;3.42;;
22812;SDS011;11573;51.334;3.244;2022-12-29T06:00:08;21.40;;;3.38;;
22812;SDS011;11573;51.334;3.244;2022-12-29T06:02:44;21.13;;;4.18;;
22812;SDS011;11573;51.334;3.244;2022-12-29T06:05:12;20.13;;;3.70;;
22812;SDS011;11573;51.334;3.244;2022-12-29T06:07:39;16.08;;;3.72;;
22812;SDS011;11573;51.334;3.244;2022-12-29T06:10:06;22.15;;;4.03;;
22812;SDS011;11573;51.334;3.244;2022-12-29T06:15:09;25.40;;;4.15;;
22812;SDS011;11573;51.334;3.244;2022-12-29T06:17:38;27.85;;;4.63;;
22812;SDS011;11573;51.334;3.244;2022-12-29T06:20:07;22.02;;;4.15;;
22812;SDS011;11573;51.334;3.244;2022-12-29T06:22:36;38.97;;;5.85;;
22812;SDS011;11573;51.334;3.244;2022-12-29T06:25:03;28.30;;;4.82;;
22812;SDS011;11573;51.334;3.244;2022-12-29T06:27:33;27.08;;;4.88;;
22812;SDS011;11573;51.334;3.244;2022-12-29T06:30:00;30.42;;;5.00;;
22812;SDS011;11573;51.334;3.244;2022-12-29T06:32:27;23.80;;;5.43;;
22812;SDS011;11573;51.334;3.244;2022-12-29T06:34:59;23.80;;;4.18;;
22812;SDS011;11573;51.334;3.244;2022-12-29T06:37:26;24.55;;;4.25;;
22812;SDS011;11573;51.334;3.244;2022-12-29T06:39:54;28.63;;;4.35;;
22812;SDS011;11573;51.334;3.244;2022-12-29T06:42:25;24.33;;;4.63;;
22812;SDS011;11573;51.334;3.244;2022-12-29T06:45:17;27.55;;;4.20;;
22812;SDS011;11573;51.334;3.244;2022-12-29T06:47:44;19.35;;;4.38;;
22812;SDS011;11573;51.334;3.244;2022-12-29T06:50:11;26.80;;;5.03;;
22812;SDS011;11573;51.334;3.244;2022-12-29T06:52:38;21.73;;;3.97;;
22812;SDS011;11573;51.334;3.244;2022-12-29T06:55:05;21.25;;;4.10;;
22812;SDS011;11573;51.334;3.244;2022-12-29T06:57:32;17.98;;;3.67;;
22812;SDS011;11573;51.334;3.244;2022-12-29T06:59:59;24.20;;;4.15;;
22812;SDS011;11573;51.334;3.244;2022-12-29T07:02:26;24.73;;;4.30;;
22812;SDS011;11573;51.334;3.244;2022-12-29T07:04:53;22.85;;;4.07;;
22812;SDS011;11573;51.334;3.244;2022-12-29T07:07:20;25.35;;;4.75;;
22812;SDS011;11573;51.334;3.244;2022-12-29T07:09:47;24.40;;;4.28;;
22812;SDS011;11573;51.334;3.244;2022-12-29T07:12:14;18.02;;;3.83;;
22812;SDS011;11573;51.334;3.244;2022-12-29T07:14:42;20.83;;;3.72;;
22812;SDS011;11573;51.334;3.244;2022-12-29T07:17:09;25.15;;;4.60;;
22812;SDS011;11573;51.334;3.244;2022-12-29T07:19:36;26.38;;;3.97;;
22812;SDS011;11573;51.334;3.244;2022-12-29T07:22:03;26.25;;;4.32;;
22812;SDS011;11573;51.334;3.244;2022-12-29T07:24:30;26.63;;;4.40;;
22812;SDS011;11573;51.334;3.244;2022-12-29T07:26:57;26.83;;;4.95;;
22812;SDS011;11573;51.334;3.244;2022-12-29T07:29:24;27.45;;;5.63;;
22812;SDS011;11573;51.334;3.244;2022-12-29T07:31:51;24.83;;;4.45;;
22812;SDS011;11573;51.334;3.244;2022-12-29T07:34:18;20.13;;;3.72;;
22812;SDS011;11573;51.334;3.244;2022-12-29T07:36:45;28.73;;;5.45;;
22812;SDS011;11573;51.334;3.244;2022-12-29T07:39:12;33.63;;;6.38;;
22812;SDS011;11573;51.334;3.244;2022-12-29T07:41:39;21.70;;;4.10;;
22812;SDS011;11573;51.334;3.244;2022-12-29T07:44:10;29.60;;;4.28;;
22812;SDS011;11573;51.334;3.244;2022-12-29T07:46:54;18.00;;;3.97;;
22812;SDS011;11573;51.334;3.244;2022-12-29T07:49:23;18.30;;;3.90;;
22812;SDS011;11573;51.334;3.244;2022-12-29T07:51:50;20.63;;;4.07;;
22812;SDS011;11573;51.334;3.244;2022-12-29T07:54:16;32.92;;;3.90;;
22812;SDS011;11573;51.334;3.244;2022-12-29T07:56:46;21.85;;;3.45;;
22812;SDS011;11573;51.334;3.244;2022-12-29T07:59:13;26.80;;;4.82;;
22812;SDS011;11573;51.334;3.244;2022-12-29T08:01:40;21.20;;;4.55;;
22812;SDS011;11573;51.334;3.244;2022-12-29T08:04:07;20.30;;;3.97;;
22812;SDS011;11573;51.334;3.244;2022-12-29T08:06:34;23.52;;;3.95;;
22812;SDS011;11573;51.334;3.244;2022-12-29T08:09:03;21.55;;;4.47;;
22812;SDS011;11573;51.334;3.244;2022-12-29T08:11:43;19.95;;;3.92;;
22812;SDS011;11573;51.334;3.244;2022-12-29T08:14:10;19.23;;;3.85;;
22812;SDS011;11573;51.334;3.244;2022-12-29T08:16:38;21.45;;;4.70;;
22812;SDS011;11573;51.334;3.244;2022-12-29T08:19:04;24.13;;;3.92;;
22812;SDS011;11573;51.334;3.244;2022-12-29T08:21:31;27.70;;;4.68;;
22812;SDS011;11573;51.334;3.244;2022-12-29T08:23:58;21.98;;;4.65;;
22812;SDS011;11573;51.334;3.244;2022-12-29T08:26:25;20.30;;;3.70;;
22812;SDS011;11573;51.334;3.244;2022-12-29T08:28:53;24.25;;;4.85;;
22812;SDS011;11573;51.334;3.244;2022-12-29T08:31:22;23.23;;;4.65;;
22812;SDS011;11573;51.334;3.244;2022-12-29T08:33:50;35.83;;;4.22;;
22812;SDS011;11573;51.334;3.244;2022-12-29T08:36:17;24.25;;;4.30;;
22812;SDS011;11573;51.334;3.244;2022-12-29T08:38:45;25.80;;;4.65;;
22812;SDS011;11573;51.334;3.244;2022-12-29T08:41:12;33.58;;;5.53;;
22812;SDS011;11573;51.334;3.244;2022-12-29T08:43:39;22.95;;;4.65;;
22812;SDS011;11573;51.334;3.244;2022-12-29T08:46:06;21.67;;;4.93;;
22812;SDS011;11573;51.334;3.244;2022-12-29T08:48:33;22.05;;;5.00;;
22812;SDS011;11573;51.334;3.244;2022-12-29T08:51:00;31.90;;;6.75;;
22812;SDS011;11573;51.334;3.244;2022-12-29T08:53:26;34.88;;;5.68;;
22812;SDS011;11573;51.334;3.244;2022-12-29T08:55:55;31.40;;;6.70;;
22812;SDS011;11573;51.334;3.244;2022-12-29T08:58:34;29.23;;;6.07;;
22812;SDS011;11573;51.334;3.244;2022-12-29T09:01:02;32.67;;;6.18;;
22812;SDS011;11573;51.334;3.244;2022-12-29T09:03:29;28.50;;;4.80;;
22812;SDS011;11573;51.334;3.244;2022-12-29T09:06:17;29.83;;;5.30;;
22812;SDS011;11573;51.334;3.244;2022-12-29T09:08:44;28.15;;;5.18;;
22812;SDS011;11573;51.334;3.244;2022-12-29T09:11:16;29.05;;;5.47;;
22812;SDS011;11573;51.334;3.244;2022-12-29T09:13:46;43.15;;;5.82;;
22812;SDS011;11573;51.334;3.244;2022-12-29T09:16:14;28.35;;;4.90;;
22812;SDS011;11573;51.334;3.244;2022-12-29T09:18:42;39.83;;;6.53;;
22812;SDS011;11573;51.334;3.244;2022-12-29T09:21:10;31.77;;;5.90;;
22812;SDS011;11573;51.334;3.244;2022-12-29T09:23:38;31.38;;;6.22;;
22812;SDS011;11573;51.334;3.244;2022-12-29T09:26:05;43.72;;;7.68;;
22812;SDS011;11573;51.334;3.244;2022-12-29T09:28:34;31.83;;;5.97;;
22812;SDS011;11573;51.334;3.244;2022-12-29T09:31:01;33.90;;;5.80;;
22812;SDS011;11573;51.334;3.244;2022-12-29T09:33:28;28.02;;;6.45;;
22812;SDS011;11573;51.334;3.244;2022-12-29T09:35:56;29.52;;;6.60;;
22812;SDS011;11573;51.334;3.244;2022-12-29T09:38:25;31.33;;;6.15;;
22812;SDS011;11573;51.334;3.244;2022-12-29T09:41:13;30.05;;;5.10;;
22812;SDS011;11573;51.334;3.244;2022-12-29T09:46:21;29.23;;;5.43;;
22812;SDS011;11573;51.334;3.244;2022-12-29T09:48:53;24.77;;;5.22;;
22812;SDS011;11573;51.334;3.244;2022-12-29T09:51:35;32.72;;;6.40;;
22812;SDS011;11573;51.334;3.244;2022-12-29T09:54:14;27.05;;;5.70;;
22812;SDS011;11573;51.334;3.244;2022-12-29T09:56:52;31.30;;;6.25;;
22812;SDS011;11573;51.334;3.244;2022-12-29T09:59:21;29.05;;;6.78;;
22812;SDS011;11573;51.334;3.244;2022-12-29T10:02:12;28.00;;;5.43;;
22812;SDS011;11573;51.334;3.244;2022-12-29T10:04:49;31.83;;;5.32;;
22812;SDS011;11573;51.334;3.244;2022-12-29T10:07:21;25.05;;;5.85;;
22812;SDS011;11573;51.334;3.244;2022-12-29T10:10:18;31.35;;;5.38;;
22812;SDS011;11573;51.334;3.244;2022-12-29T10:15:44;31.80;;;5.38;;
22812;SDS011;11573;51.334;3.244;2022-12-29T10:24:10;28.77;;;5.97;;
22812;SDS011;11573;51.334;3.244;2022-12-29T10:26:39;36.90;;;5.47;;
22812;SDS011;11573;51.334;3.244;2022-12-29T10:29:13;33.13;;;5.93;;
22812;SDS011;11573;51.334;3.244;2022-12-29T10:31:50;28.90;;;6.00;;
22812;SDS011;11573;51.334;3.244;2022-12-29T10:34:47;35.28;;;5.50;;
22812;SDS011;11573;51.334;3.244;2022-12-29T10:37:27;26.95;;;5.32;;
22812;SDS011;11573;51.334;3.244;2022-12-29T10:39:59;27.90;;;5.28;;
22812;SDS011;11573;51.334;3.244;2022-12-29T10:42:36;31.60;;;5.40;;
22812;SDS011;11573;51.334;3.244;2022-12-29T10:45:13;32.58;;;5.97;;
22812;SDS011;11573;51.334;3.244;2022-12-29T10:48:26;34.90;;;6.28;;
22812;SDS011;11573;51.334;3.244;2022-12-29T10:50:39;25.25;;;5.50;;
22812;SDS011;11573;51.334;3.244;2022-12-29T10:53:11;37.00;;;5.65;;
22812;SDS011;11573;51.334;3.244;2022-12-29T10:55:46;30.67;;;5.75;;
22812;SDS011;11573;51.334;3.244;2022-12-29T10:58:15;33.13;;;5.53;;
22812;SDS011;11573;51.334;3.244;2022-12-29T11:00:42;29.98;;;5.50;;
22812;SDS011;11573;51.334;3.244;2022-12-29T11:08:25;33.53;;;5.75;;
22812;SDS011;11573;51.334;3.244;2022-12-29T11:11:01;24.48;;;4.80;;
22812;SDS011;11573;51.334;3.244;2022-12-29T11:13:31;16.35;;;3.83;;
22812;SDS011;11573;51.334;3.244;2022-12-29T11:16:04;23.05;;;4.90;;
22812;SDS011;11573;51.334;3.244;2022-12-29T11:18:36;28.15;;;5.38;;
22812;SDS011;11573;51.334;3.244;2022-12-29T11:21:07;23.98;;;4.50;;
22812;SDS011;11573;51.334;3.244;2022-12-29T11:24:18;26.42;;;4.15;;
22812;SDS011;11573;51.334;3.244;2022-12-29T11:26:45;28.87;;;4.20;;
22812;SDS011;11573;51.334;3.244;2022-12-29T11:31:50;19.35;;;3.78;;
22812;SDS011;11573;51.334;3.244;2022-12-29T11:36:47;18.88;;;3.55;;
22812;SDS011;11573;51.334;3.244;2022-12-29T11:39:30;15.63;;;3.20;;
22812;SDS011;11573;51.334;3.244;2022-12-29T11:42:00;19.42;;;3.65;;
22812;SDS011;11573;51.334;3.244;2022-12-29T11:44:30;14.02;;;2.80;;
22812;SDS011;11573;51.334;3.244;2022-12-29T11:47:03;13.73;;;2.92;;
22812;SDS011;11573;51.334;3.244;2022-12-29T11:49:33;12.65;;;2.80;;
22812;SDS011;11573;51.334;3.244;2022-12-29T11:52:00;19.15;;;4.30;;
22812;SDS011;11573;51.334;3.244;2022-12-29T11:54:31;12.40;;;2.92;;
22812;SDS011;11573;51.334;3.244;2022-12-29T11:57:12;11.40;;;2.55;;
22812;SDS011;11573;51.334;3.244;2022-12-29T11:59:42;11.82;;;2.60;;
22812;SDS011;11573;51.334;3.244;2022-12-29T12:02:24;11.93;;;2.83;;
22812;SDS011;11573;51.334;3.244;2022-12-29T12:05:10;9.35;;;2.50;;
22812;SDS011;11573;51.334;3.244;2022-12-29T12:08:17;13.25;;;2.78;;
22812;SDS011;11573;51.334;3.244;2022-12-29T12:10:55;9.63;;;2.08;;
22812;SDS011;11573;51.334;3.244;2022-12-29T12:16:15;11.00;;;2.22;;
22812;SDS011;11573;51.334;3.244;2022-12-29T12:18:49;10.10;;;2.75;;
22812;SDS011;11573;51.334;3.244;2022-12-29T12:29:25;13.25;;;2.67;;
22812;SDS011;11573;51.334;3.244;2022-12-29T12:34:55;11.27;;;2.53;;
22812;SDS011;11573;51.334;3.244;2022-12-29T12:40:19;15.50;;;2.90;;
22812;SDS011;11573;51.334;3.244;2022-12-29T12:43:40;9.00;;;2.15;;
22812;SDS011;11573;51.334;3.244;2022-12-29T12:57:05;15.32;;;1.98;;
22812;SDS011;11573;51.334;3.244;2022-12-29T12:59:56;10.05;;;2.22;;
22812;SDS011;11573;51.334;3.244;2022-12-29T13:02:33;11.52;;;1.80;;
22812;SDS011;11573;51.334;3.244;2022-12-29T13:11:02;15.52;;;2.17;;
22812;SDS011;11573;51.334;3.244;2022-12-29T13:22:11;15.83;;;2.83;;
22812;SDS011;11573;51.334;3.244;2022-12-29T13:30:17;15.45;;;3.25;;
22812;SDS011;11573;51.334;3.244;2022-12-29T13:33:05;10.65;;;2.60;;
22812;SDS011;11573;51.334;3.244;2022-12-29T13:36:03;13.27;;;2.60;;
22812;SDS011;11573;51.334;3.244;2022-12-29T13:38:44;13.55;;;2.25;;
22812;SDS011;11573;51.334;3.244;2022-12-29T13:41:19;13.23;;;3.00;;
22812;SDS011;11573;51.334;3.244;2022-12-29T13:43:47;13.68;;;2.17;;
22812;SDS011;11573;51.334;3.244;2022-12-29T13:46:22;7.38;;;2.47;;
22812;SDS011;11573;51.334;3.244;2022-12-29T13:49:00;12.48;;;2.08;;
22812;SDS011;11573;51.334;3.244;2022-12-29T13:51:33;4.78;;;1.40;;
22812;SDS011;11573;51.334;3.244;2022-12-29T13:56:51;8.35;;;2.05;;
22812;SDS011;11573;51.334;3.244;2022-12-29T13:59:33;6.68;;;1.90;;
22812;SDS011;11573;51.334;3.244;2022-12-29T14:07:38;9.52;;;2.60;;
22812;SDS011;11573;51.334;3.244;2022-12-29T14:10:18;9.52;;;2.00;;
22812;SDS011;11573;51.334;3.244;2022-12-29T14:13:03;10.60;;;2.13;;
22812;SDS011;11573;51.334;3.244;2022-12-29T14:18:01;9.60;;;2.53;;
22812;SDS011;11573;51.334;3.244;2022-12-29T14:20:31;14.43;;;2.53;;
22812;SDS011;11573;51.334;3.244;2022-12-29T14:28:33;12.82;;;2.30;;
22812;SDS011;11573;51.334;3.244;2022-12-29T14:31:07;10.25;;;2.05;;
22812;SDS011;11573;51.334;3.244;2022-12-29T14:36:53;13.13;;;2.70;;
22812;SDS011;11573;51.334;3.244;2022-12-29T14:44:49;11.23;;;2.60;;
22812;SDS011;11573;51.334;3.244;2022-12-29T14:47:37;13.07;;;2.42;;
22812;SDS011;11573;51.334;3.244;2022-12-29T14:50:16;8.68;;;2.42;;
22812;SDS011;11573;51.334;3.244;2022-12-29T14:58:06;14.43;;;2.22;;
22812;SDS011;11573;51.334;3.244;2022-12-29T15:00:47;8.63;;;2.33;;
22812;SDS011;11573;51.334;3.244;2022-12-29T15:03:20;8.95;;;2.03;;
22812;SDS011;11573;51.334;3.244;2022-12-29T15:05:55;12.65;;;2.83;;
22812;SDS011;11573;51.334;3.244;2022-12-29T15:14:23;10.35;;;2.67;;
22812;SDS011;11573;51.334;3.244;2022-12-29T15:17:08;8.98;;;2.15;;
22812;SDS011;11573;51.334;3.244;2022-12-29T15:19:38;18.95;;;2.75;;
22812;SDS011;11573;51.334;3.244;2022-12-29T15:22:05;11.57;;;2.30;;
22812;SDS011;11573;51.334;3.244;2022-12-29T15:24:32;12.60;;;3.17;;
22812;SDS011;11573;51.334;3.244;2022-12-29T15:27:10;13.48;;;3.10;;
22812;SDS011;11573;51.334;3.244;2022-12-29T15:29:43;13.93;;;2.97;;
22812;SDS011;11573;51.334;3.244;2022-12-29T15:34:41;7.22;;;2.38;;
22812;SDS011;11573;51.334;3.244;2022-12-29T15:37:23;13.02;;;2.38;;
22812;SDS011;11573;51.334;3.244;2022-12-29T15:39:52;13.00;;;2.80;;
22812;SDS011;11573;51.334;3.244;2022-12-29T15:45:06;10.68;;;2.50;;
22812;SDS011;11573;51.334;3.244;2022-12-29T15:47:37;12.85;;;2.75;;
22812;SDS011;11573;51.334;3.244;2022-12-29T15:50:08;12.00;;;2.55;;
22812;SDS011;11573;51.334;3.244;2022-12-29T15:52:49;11.90;;;2.55;;
22812;SDS011;11573;51.334;3.244;2022-12-29T15:58:28;17.80;;;3.42;;
22812;SDS011;11573;51.334;3.244;2022-12-29T16:00:57;13.48;;;2.95;;
22812;SDS011;11573;51.334;3.244;2022-12-29T16:03:26;21.75;;;2.97;;
22812;SDS011;11573;51.334;3.244;2022-12-29T16:06:06;14.73;;;3.08;;
22812;SDS011;11573;51.334;3.244;2022-12-29T16:08:55;11.38;;;2.35;;
22812;SDS011;11573;51.334;3.244;2022-12-29T16:11:25;15.40;;;2.95;;
22812;SDS011;11573;51.334;3.244;2022-12-29T16:13:55;12.98;;;2.70;;
22812;SDS011;11573;51.334;3.244;2022-12-29T16:16:33;15.68;;;2.72;;
22812;SDS011;11573;51.334;3.244;2022-12-29T16:19:04;14.45;;;2.83;;
22812;SDS011;11573;51.334;3.244;2022-12-29T16:21:47;18.42;;;3.90;;
22812;SDS011;11573;51.334;3.244;2022-12-29T16:24:15;15.27;;;2.72;;
22812;SDS011;11573;51.334;3.244;2022-12-29T16:26:48;20.92;;;3.70;;
22812;SDS011;11573;51.334;3.244;2022-12-29T16:29:17;11.52;;;2.85;;
22812;SDS011;11573;51.334;3.244;2022-12-29T16:31:54;13.93;;;3.10;;
22812;SDS011;11573;51.334;3.244;2022-12-29T16:34:32;11.32;;;3.10;;
22812;SDS011;11573;51.334;3.244;2022-12-29T16:37:30;13.80;;;2.83;;
22812;SDS011;11573;51.334;3.244;2022-12-29T16:42:46;25.88;;;3.90;;
22812;SDS011;11573;51.334;3.244;2022-12-29T16:47:47;21.33;;;3.88;;
22812;SDS011;11573;51.334;3.244;2022-12-29T16:50:37;22.80;;;3.33;;
22812;SDS011;11573;51.334;3.244;2022-12-29T16:53:06;15.85;;;3.53;;
22812;SDS011;11573;51.334;3.244;2022-12-29T16:55:53;17.88;;;3.05;;
22812;SDS011;11573;51.334;3.244;2022-12-29T16:58:24;25.08;;;4.05;;
22812;SDS011;11573;51.334;3.244;2022-12-29T17:00:54;14.88;;;3.45;;
22812;SDS011;11573;51.334;3.244;2022-12-29T17:03:24;22.75;;;3.80;;
22812;SDS011;11573;51.334;3.244;2022-12-29T17:06:00;20.83;;;4.00;;
22812;SDS011;11573;51.334;3.244;2022-12-29T17:08:28;22.83;;;4.78;;
22812;SDS011;11573;51.334;3.244;2022-12-29T17:10:55;16.05;;;3.72;;
22812;SDS011;11573;51.334;3.244;2022-12-29T17:13:42;24.15;;;4.60;;
22812;SDS011;11573;51.334;3.244;2022-12-29T17:16:09;20.48;;;3.95;;
22812;SDS011;11573;51.334;3.244;2022-12-29T17:18:38;29.77;;;5.40;;
22812;SDS011;11573;51.334;3.244;2022-12-29T17:21:05;24.63;;;4.43;;
22812;SDS011;11573;51.334;3.244;2022-12-29T17:23:32;28.65;;;5.82;;
22812;SDS011;11573;51.334;3.244;2022-12-29T17:26:00;28.75;;;4.95;;
22812;SDS011;11573;51.334;3.244;2022-12-29T17:28:28;28.98;;;3.83;;
22812;SDS011;11573;51.334;3.244;2022-12-29T17:31:00;20.90;;;4.18;;
22812;SDS011;11573;51.334;3.244;2022-12-29T17:33:30;20.13;;;4.43;;
22812;SDS011;11573;51.334;3.244;2022-12-29T17:36:01;22.88;;;4.70;;
22812;SDS011;11573;51.334;3.244;2022-12-29T17:38:29;25.88;;;4.28;;
22812;SDS011;11573;51.334;3.244;2022-12-29T17:41:00;28.20;;;4.53;;
22812;SDS011;11573;51.334;3.244;2022-12-29T17:43:27;20.55;;;3.60;;
22812;SDS011;11573;51.334;3.244;2022-12-29T17:46:01;17.70;;;4.00;;
22812;SDS011;11573;51.334;3.244;2022-12-29T17:48:30;24.63;;;3.63;;